Time;durP1;ratioP1;P1;durP2;ratioP2;P2;SDS_P1;SDS_P2;PMS_P1;PMS_P2;Temp;Humidity;BMP_temperature;BMP_pressure;BME280_temperature;BME280_humidity;BME280_pressure;Samples;Min_cycle;Max_cycle;Signal;HPM_P1;HPM_P2
2024/01/15 00:18:12;;;;;;;18.63;10.85;;;;;;;4.71;63.73;93925.97;6219806;22;20028;-85
2024/01/15 00:20:38;;;;;;;19.50;10.52;;;;;;;4.75;63.36;93913.56;6192558;23;20018;-86
2024/01/15 00:23:03;;;;;;;20.33;10.80;;;;;;;4.66;63.53;93905.91;6217693;23;20012;-86
2024/01/15 00:41:07;;;;;;;18.13;10.95;;;;;;;4.98;62.19;93914.31;6212250;23;20016;-86
2024/01/15 00:43:32;;;;;;;17.63;10.27;;;;;;;4.90;63.10;93911.81;6187565;23;20020;-86
2024/01/15 00:45:58;;;;;;;20.88;10.55;;;;;;;4.76;63.28;93900.50;6162451;23;20039;-86
2024/01/15 00:56:03;;;;;;;19.38;10.30;;;;;;;4.52;64.35;93885.25;6209752;23;20016;-85
2024/01/15 00:58:28;;;;;;;17.93;10.10;;;;;;;4.63;63.81;93864.25;6187046;23;20009;-85
2024/01/15 01:13:44;;;;;;;13.50;7.90;;;;;;;5.18;62.94;93888.84;6182707;23;20021;-85
2024/01/15 01:16:09;;;;;;;14.25;8.48;;;;;;;5.01;63.47;93875.31;6132772;23;20055;-85
2024/01/15 01:18:38;;;;;;;14.75;8.38;;;;;;;5.22;62.88;93894.44;6156682;23;20063;-85
2024/01/15 01:23:29;;;;;;;13.80;7.88;;;;;;;5.17;62.71;93889.00;6218779;23;20074;-86
2024/01/15 01:25:58;;;;;;;13.60;7.53;;;;;;;5.35;62.15;93886.91;6187715;23;20068;-85
2024/01/15 01:28:24;;;;;;;11.70;7.38;;;;;;;5.13;62.87;93870.53;6163229;23;20001;-85
2024/01/15 01:36:00;;;;;;;9.38;6.05;;;;;;;4.90;62.96;93878.31;6181441;23;20021;-85
2024/01/15 01:38:28;;;;;;;9.00;5.15;;;;;;;5.11;62.57;93884.56;6129441;23;20071;-86
2024/01/15 01:40:53;;;;;;;9.52;6.20;;;;;;;5.18;62.16;93872.56;6081845;23;20021;-86
2024/01/15 01:43:19;;;;;;;10.88;6.82;;;;;;;5.08;63.25;93881.38;6104974;23;20020;-86
2024/01/15 01:45:44;;;;;;;9.63;6.20;;;;;;;4.81;63.91;93863.91;6105226;23;20005;-86
2024/01/15 01:50:35;;;;;;;9.73;6.35;;;;;;;5.37;61.83;93874.63;6154459;23;20029;-86
2024/01/15 01:53:04;;;;;;;10.75;5.93;;;;;;;4.94;63.41;93864.13;6105407;23;20019;-86
2024/01/15 01:55:33;;;;;;;10.32;6.32;;;;;;;5.49;61.72;93870.59;6105858;23;20010;-85
2024/01/15 01:57:59;;;;;;;9.57;6.07;;;;;;;5.66;60.60;93865.25;6128720;23;20005;-85
2024/01/15 02:10:36;;;;;;;8.30;5.38;;;;;;;5.56;60.84;93859.56;6183788;23;20032;-85
2024/01/15 02:13:02;;;;;;;9.27;5.90;;;;;;;5.67;60.13;93872.81;6134006;23;20005;-85
2024/01/15 02:15:27;;;;;;;8.13;5.32;;;;;;;5.79;60.00;93854.31;6134260;23;20012;-85
2024/01/15 02:18:11;;;;;;;8.63;5.50;;;;;;;5.54;60.21;93856.38;6157987;23;20005;-85
2024/01/15 02:20:36;;;;;;;9.88;5.30;;;;;;;5.74;60.32;93844.50;6157866;23;20040;-85
2024/01/15 02:25:43;;;;;;;8.60;5.20;;;;;;;5.46;60.73;93852.09;6210736;23;20021;-86
2024/01/15 02:28:10;;;;;;;8.55;5.28;;;;;;;5.68;60.43;93863.28;6188352;23;20004;-86
2024/01/15 02:30:39;;;;;;;9.85;5.40;;;;;;;5.47;61.11;93864.84;6187673;23;20012;-86
2024/01/15 02:33:06;;;;;;;10.70;5.50;;;;;;;5.62;60.68;93864.03;6188442;23;20013;-86
2024/01/15 02:35:31;;;;;;;8.95;5.53;;;;;;;5.61;60.35;93867.56;6188110;23;20008;-86
2024/01/15 02:40:22;;;;;;;8.85;5.63;;;;;;;5.86;59.48;93868.06;6208170;23;20024;-86
2024/01/15 02:42:50;;;;;;;9.18;5.63;;;;;;;5.80;59.25;93854.09;6163680;23;20093;-85
2024/01/15 02:45:16;;;;;;;10.30;5.85;;;;;;;6.04;58.72;93867.69;6163977;23;20012;-86
2024/01/15 02:47:46;;;;;;;11.23;6.30;;;;;;;5.96;58.38;93860.03;6163865;23;20080;-86
2024/01/15 02:50:11;;;;;;;10.98;5.68;;;;;;;5.87;58.81;93854.19;6187826;23;20005;-86
2024/01/15 03:02:57;;;;;;;10.40;6.30;;;;;;;5.90;59.14;93864.13;6183621;22;20033;-86
2024/01/15 03:07:48;;;;;;;14.13;7.80;;;;;;;6.04;59.08;93865.13;6212637;23;20031;-85
2024/01/15 03:10:19;;;;;;;12.55;7.63;;;;;;;5.98;59.20;93861.47;6187726;23;20008;-85
2024/01/15 03:12:44;;;;;;;;;;;;;;;5.23;61.50;93868.47;6188708;23;20012;-85
2024/01/15 03:15:10;;;;;;;17.35;9.55;;;;;;;5.51;60.40;93864.47;6163549;23;19943;-85
2024/01/15 03:17:35;;;;;;;20.92;11.05;;;;;;;5.49;61.10;93872.41;6162844;23;20047;-85
2024/01/15 03:25:11;;;;;;;34.63;15.45;;;;;;;5.19;61.73;93854.34;6189682;23;20023;-86
2024/01/15 03:27:39;;;;;;;28.52;14.98;;;;;;;5.29;61.80;93874.69;6138664;23;20017;-86
2024/01/15 03:30:05;;;;;;;74.28;17.63;;;;;;;5.18;62.53;93870.81;6162970;23;20005;-86
2024/01/15 03:32:31;;;;;;;36.40;16.88;;;;;;;5.45;61.81;93874.53;6163322;23;20016;-86
2024/01/15 03:34:56;;;;;;;278.20;24.92;;;;;;;5.25;62.27;93874.28;6163222;23;20009;-85
2024/01/15 03:39:59;;;;;;;68.78;18.52;;;;;;;4.94;62.67;93871.06;6205375;23;20029;-86
2024/01/15 03:44:50;;;;;;;56.92;17.88;;;;;;;4.98;62.23;93865.34;6197451;23;20037;-86
2024/01/15 03:47:16;;;;;;;196.82;22.67;;;;;;;5.07;62.05;93861.72;6163479;23;20044;-86
2024/01/15 03:49:41;;;;;;;494.80;30.20;;;;;;;5.14;62.37;93867.00;6162110;23;20016;-85
2024/01/15 03:52:07;;;;;;;46.85;16.05;;;;;;;5.13;62.25;93865.38;6162638;23;20043;-86
2024/01/15 03:54:35;;;;;;;50.10;19.27;;;;;;;5.12;61.98;93874.06;6185805;23;20021;-86
2024/01/15 03:57:00;;;;;;;43.30;18.38;;;;;;;5.20;61.78;93865.47;6187134;23;20004;-85
2024/01/15 03:59:26;;;;;;;49.45;19.60;;;;;;;4.88;62.34;93875.13;6212344;23;20008;-85
2024/01/15 04:01:51;;;;;;;74.07;22.42;;;;;;;4.98;61.10;93862.00;6187481;23;20070;-85
2024/01/15 04:04:18;;;;;;;137.50;24.13;;;;;;;4.69;61.79;93864.34;6210867;23;20019;-86
2024/01/15 04:09:08;;;;;;;54.15;21.35;;;;;;;4.45;62.32;93867.91;6204129;23;20028;-86
2024/01/15 04:11:37;;;;;;;54.85;21.00;;;;;;;4.43;62.34;93871.63;6210993;23;20012;-86
2024/01/15 04:14:02;;;;;;;49.47;20.75;;;;;;;4.49;61.28;93868.38;6212501;23;20001;-85
2024/01/15 04:16:28;;;;;;;50.92;21.05;;;;;;;4.46;61.64;93861.00;6212423;23;20012;-85
2024/01/15 04:18:53;;;;;;;46.35;20.05;;;;;;;4.40;61.35;93870.22;6212298;23;20061;-85
2024/01/15 04:21:19;;;;;;;50.22;21.33;;;;;;;4.15;62.29;93867.03;6136166;23;20018;-85
2024/01/15 04:23:44;;;;;;;52.92;20.80;;;;;;;4.19;61.75;93858.00;6098000;23;20010;-85
2024/01/15 04:28:39;;;;;;;45.80;20.45;;;;;;;4.11;61.28;93852.88;6160462;23;20010;-84
2024/01/15 04:31:05;;;;;;;47.75;20.55;;;;;;;3.97;61.76;93851.06;6138429;23;20020;-85
2024/01/15 04:38:21;;;;;;;47.00;19.63;;;;;;;3.79;62.72;93866.75;6180742;23;20029;-85
2024/01/15 04:40:48;;;;;;;47.63;20.85;;;;;;;3.63;62.67;93857.34;6133024;23;20012;-85
2024/01/15 04:43:14;;;;;;;47.55;19.38;;;;;;;3.61;63.00;93869.56;6157822;23;20009;-85
2024/01/15 04:45:39;;;;;;;48.80;20.10;;;;;;;3.49;63.17;93867.38;6109351;23;20016;-85
2024/01/15 04:48:05;;;;;;;49.92;20.52;;;;;;;3.37;63.75;93863.56;6157520;23;20008;-85
2024/01/15 04:50:30;;;;;;;49.70;20.65;;;;;;;3.32;63.39;93863.25;6192665;23;20040;-85
2024/01/15 04:52:58;;;;;;;51.15;21.55;;;;;;;3.32;63.96;93861.50;6137885;23;20095;-85
2024/01/15 04:55:26;;;;;;;54.00;22.55;;;;;;;3.22;64.43;93867.78;6162884;23;20046;-86
2024/01/15 05:05:27;;;;;;;46.53;18.08;;;;;;;3.34;63.51;93884.47;6211841;23;20020;-85
2024/01/15 05:18:14;;;;;;;45.10;17.10;;;;;;;3.20;63.15;93883.38;6184578;23;20029;-85
2024/01/15 05:20:39;;;;;;;36.53;16.05;;;;;;;3.16;62.19;93876.16;6159012;23;20000;-86
2024/01/15 05:23:06;;;;;;;36.80;14.57;;;;;;;3.26;62.25;93877.56;6159758;23;20008;-86
2024/01/15 05:25:31;;;;;;;39.50;16.27;;;;;;;3.18;62.32;93872.47;6135014;23;20017;-86
2024/01/15 05:28:00;;;;;;;36.83;16.52;;;;;;;3.10;62.64;93885.31;6186324;23;20023;-85
2024/01/15 05:30:25;;;;;;;35.65;15.70;;;;;;;3.28;62.34;93885.91;6163089;23;20008;-86
2024/01/15 05:32:51;;;;;;;33.22;14.93;;;;;;;3.47;61.41;93884.72;6187330;23;20055;-86
2024/01/15 05:45:30;;;;;;;26.52;11.95;;;;;;;3.45;60.83;93896.16;6211560;23;20028;-86
2024/01/15 05:52:46;;;;;;;27.10;12.68;;;;;;;3.57;60.14;93883.72;6206906;23;20021;-87
2024/01/15 05:55:11;;;;;;;30.80;13.07;;;;;;;3.49;59.71;93872.50;6188233;23;20021;-85
2024/01/15 06:02:47;;;;;;;31.67;13.23;;;;;;;3.21;59.73;93881.59;6209708;23;20070;-86
2024/01/15 06:05:16;;;;;;;28.10;12.57;;;;;;;3.07;60.83;93881.31;6188885;23;20029;-86
2024/01/15 06:07:42;;;;;;;28.40;12.25;;;;;;;3.11;60.73;93890.31;6188488;23;20016;-86
2024/01/15 06:10:07;;;;;;;30.33;11.93;;;;;;;2.94;60.06;93899.81;6188675;23;19992;-86
2024/01/15 06:12:33;;;;;;;27.15;11.65;;;;;;;2.89;61.36;93898.69;6164060;23;20028;-86
2024/01/15 06:17:37;;;;;;;24.17;10.27;;;;;;;2.71;60.12;93894.53;6213345;23;20028;-85
2024/01/15 06:20:03;;;;;;;24.55;10.48;;;;;;;2.62;60.38;93895.50;6164617;23;20028;-85
2024/01/15 06:22:31;;;;;;;23.50;10.13;;;;;;;3.03;59.68;93905.75;6163116;23;20005;-85
2024/01/15 06:24:56;;;;;;;25.33;10.40;;;;;;;2.98;59.55;93904.63;6188505;23;20055;-85
2024/01/15 06:40:17;;;;;;;22.15;9.77;;;;;;;3.07;59.24;93889.03;6213234;23;20025;-86
2024/01/15 06:47:43;;;;;;;21.65;9.07;;;;;;;3.05;58.55;93864.47;6208732;23;20028;-86
2024/01/15 06:57:38;;;;;;;21.60;8.65;;;;;;;3.37;57.29;93860.19;6177948;23;20055;-86
2024/01/15 07:00:07;;;;;;;20.63;8.65;;;;;;;3.46;57.31;93862.56;6134008;23;20009;-85
2024/01/15 07:18:01;;;;;;;18.08;7.97;;;;;;;3.17;57.97;93849.50;6205957;23;20047;-86
2024/01/15 07:43:36;;;;;;;20.05;8.43;;;;;;;3.61;57.55;93862.66;6212129;23;20016;-86
2024/01/15 07:46:02;;;;;;;19.67;8.73;;;;;;;3.60;57.50;93860.25;6163629;23;20010;-86
2024/01/15 07:48:27;;;;;;;20.10;8.77;;;;;;;3.74;57.45;93862.13;6188172;23;20075;-86
2024/01/15 08:45:06;;;;;;;21.77;9.88;;;;;;;3.27;58.06;93889.44;6177544;23;20107;-85
2024/01/15 08:47:35;;;;;;;22.95;9.80;;;;;;;3.31;58.17;93889.91;6187291;23;20021;-85
2024/01/15 08:50:00;;;;;;;22.33;9.85;;;;;;;3.28;58.18;93890.25;6163312;23;20052;-86
2024/01/15 09:05:12;;;;;;;30.40;13.35;;;;;;;3.08;58.08;93874.41;6211224;22;20012;-86
2024/01/15 09:07:37;;;;;;;28.95;12.77;;;;;;;3.27;57.46;93886.09;6192033;23;20024;-85
2024/01/15 09:12:39;;;;;;;25.70;11.68;;;;;;;3.22;57.66;93886.59;6241295;22;20028;-85
2024/01/15 09:15:05;;;;;;;25.77;11.93;;;;;;;3.39;57.78;93887.34;6191729;23;20063;-86
2024/01/15 09:17:32;;;;;;;26.23;11.52;;;;;;;3.33;57.48;93893.13;6213868;23;20011;-86
2024/01/15 09:19:57;;;;;;;22.83;10.45;;;;;;;3.17;58.53;93893.97;6218232;23;20019;-87
2024/01/15 09:22:23;;;;;;;22.42;10.30;;;;;;;3.11;58.92;93895.44;6217973;23;20011;-87
2024/01/15 09:27:13;;;;;;;20.52;9.95;;;;;;;3.23;58.24;93913.88;6210855;23;20028;-88
2024/01/15 09:29:45;;;;;;;23.27;10.32;;;;;;;3.03;58.08;93903.16;6186739;23;20009;-86
2024/01/15 09:32:11;;;;;;;21.63;10.27;;;;;;;3.20;58.75;93918.53;6186991;23;20008;-86
2024/01/15 09:34:36;;;;;;;22.00;10.55;;;;;;;3.28;57.93;93924.47;6186242;23;20019;-86
2024/01/15 09:39:27;;;;;;;24.45;10.57;;;;;;;2.98;58.67;93910.56;6212157;23;20024;-86
2024/01/15 09:41:54;;;;;;;24.42;10.88;;;;;;;3.20;58.46;93927.06;6138342;23;20019;-86
2024/01/15 09:44:20;;;;;;;23.73;10.35;;;;;;;3.24;58.57;93933.47;6186978;23;20012;-86
2024/01/15 09:46:51;;;;;;;24.98;11.02;;;;;;;3.43;57.45;93926.38;6187226;23;20062;-86
2024/01/15 09:49:17;;;;;;;29.23;14.82;;;;;;;3.40;57.85;93930.06;6163420;23;20007;-86
2024/01/15 09:51:43;;;;;;;25.85;12.20;;;;;;;3.51;58.08;93931.47;6162385;23;20013;-87
2024/01/15 09:56:35;;;;;;;23.52;10.45;;;;;;;3.60;57.08;93919.38;6211543;23;20035;-86
2024/01/15 09:59:01;;;;;;;22.20;10.43;;;;;;;3.43;57.97;93919.44;6185956;23;20012;-85
2024/01/15 10:01:28;;;;;;;23.58;11.20;;;;;;;3.87;57.28;93911.22;6187313;23;20074;-86
2024/01/15 10:03:55;;;;;;;26.95;11.43;;;;;;;3.71;57.62;93916.44;6188292;23;20103;-86
2024/01/15 10:06:22;;;;;;;31.77;13.82;;;;;;;3.82;57.81;93923.00;6164097;23;20012;-86
2024/01/15 10:14:01;;;;;;;22.75;10.52;;;;;;;3.60;56.20;93904.78;6211905;23;20024;-85
2024/01/15 10:31:48;;;;;;;24.15;10.82;;;;;;;3.68;57.62;93870.50;6210945;23;20024;-85
2024/01/15 10:34:15;;;;;;;24.77;10.90;;;;;;;3.78;56.11;93857.44;6163307;23;20005;-85
2024/01/15 10:44:16;;;;;;;19.00;9.82;;;;;;;3.71;55.95;93844.44;6207031;23;20023;-85
2024/01/15 10:46:43;;;;;;;24.30;12.02;;;;;;;3.75;55.98;93844.91;6163461;23;20079;-85
2024/01/15 10:49:11;;;;;;;21.67;11.30;;;;;;;3.66;56.94;93862.16;6188967;23;20001;-85
2024/01/15 10:51:38;;;;;;;22.77;11.52;;;;;;;3.59;57.27;93845.81;6187987;23;20000;-86
2024/01/15 10:54:05;;;;;;;22.58;10.98;;;;;;;3.83;56.50;93847.44;6188132;23;20009;-86
2024/01/15 10:56:33;;;;;;;23.17;11.52;;;;;;;3.98;57.13;93850.06;6163649;23;20064;-85
2024/01/15 11:19:42;;;;;;;23.80;11.02;;;;;;;4.21;55.71;93850.91;6212706;23;19920;-85
2024/01/15 11:22:48;;;;;;;22.35;10.55;;;;;;;4.02;55.96;93851.34;6187728;23;20048;-86
2024/01/15 11:25:14;;;;;;;21.73;11.07;;;;;;;4.21;56.29;93850.91;6144816;23;20007;-86
2024/01/15 11:27:42;;;;;;;23.85;10.80;;;;;;;4.20;56.46;93853.63;6188483;23;20059;-86
2024/01/15 11:30:14;;;;;;;25.17;11.98;;;;;;;4.04;57.55;93863.06;6187470;23;20056;-86
2024/01/15 11:32:43;;;;;;;25.10;11.90;;;;;;;4.17;57.59;93849.63;6163527;23;20039;-85
2024/01/15 11:45:33;;;;;;;20.95;9.98;;;;;;;4.10;55.49;93835.84;6212983;23;20020;-86
2024/01/15 11:48:13;;;;;;;20.25;10.35;;;;;;;3.83;55.92;93842.31;6187542;23;20013;-85
2024/01/15 11:50:44;;;;;;;20.92;10.60;;;;;;;3.82;56.07;93828.63;6187851;23;20020;-85
2024/01/15 11:58:16;;;;;;;21.23;10.38;;;;;;;3.85;56.21;93824.94;6211235;23;20009;-85
2024/01/15 12:00:49;;;;;;;19.17;9.93;;;;;;;4.11;54.51;93838.25;6186365;23;20015;-86
2024/01/15 12:03:15;;;;;;;18.35;9.25;;;;;;;4.15;54.50;93828.44;6187489;23;20095;-85
2024/01/15 12:05:43;;;;;;;18.80;8.90;;;;;;;4.05;54.13;93820.91;6187740;23;20009;-85
2024/01/15 12:22:43;;;;;;;12.70;6.57;;;;;;;3.92;53.25;93802.69;6181832;23;20048;-86
2024/01/15 12:25:09;;;;;;;11.95;6.50;;;;;;;3.85;52.52;93800.00;6186599;23;20116;-85
2024/01/15 12:27:35;;;;;;;10.10;6.18;;;;;;;3.78;53.17;93801.66;6187478;23;20012;-86
2024/01/15 12:30:00;;;;;;;13.32;6.25;;;;;;;4.10;52.44;93803.19;6162347;23;20009;-86
2024/01/15 12:32:26;;;;;;;12.95;6.35;;;;;;;4.38;52.26;93809.56;6162258;23;20009;-86
2024/01/15 12:34:51;;;;;;;11.80;6.43;;;;;;;4.12;53.11;93797.88;6187292;23;20080;-86
2024/01/15 12:44:57;;;;;;;11.55;6.03;;;;;;;3.88;51.51;93786.81;6210179;23;20126;-85
2024/01/15 12:47:22;;;;;;;11.27;6.13;;;;;;;3.83;51.96;93791.66;6187103;23;20021;-86
2024/01/15 12:49:53;;;;;;;11.73;6.15;;;;;;;4.04;51.79;93806.47;6187360;23;20001;-86
2024/01/15 12:52:21;;;;;;;17.38;9.60;;;;;;;4.21;52.81;93808.94;6187419;23;20016;-86
2024/01/15 12:54:47;;;;;;;48.88;21.17;;;;;;;4.15;52.83;93794.16;6161986;23;20016;-87
2024/01/15 12:57:12;;;;;;;21.98;9.73;;;;;;;4.16;52.42;93809.44;6138253;23;20071;-86
2024/01/15 12:59:38;;;;;;;12.27;7.40;;;;;;;3.94;52.19;93798.19;6185980;23;20012;-86
2024/01/15 13:02:05;;;;;;;12.80;6.53;;;;;;;4.08;51.88;93804.34;6185006;23;20019;-86
2024/01/15 13:20:28;;;;;;;12.30;6.82;;;;;;;4.11;51.16;93780.81;6203416;23;20024;-85
2024/01/15 13:22:53;;;;;;;12.82;7.00;;;;;;;4.16;51.55;93775.97;6161580;23;20028;-85
2024/01/15 13:25:20;;;;;;;11.23;6.30;;;;;;;4.39;51.74;93786.22;6161620;23;20023;-85
2024/01/15 13:27:45;;;;;;;15.27;8.13;;;;;;;4.40;51.06;93776.72;6187003;23;20018;-87
2024/01/15 13:30:12;;;;;;;13.75;7.35;;;;;;;4.55;50.50;93780.16;6163162;23;20032;-86
2024/01/15 13:32:37;;;;;;;11.23;6.43;;;;;;;4.53;51.71;93796.72;6189610;23;20008;-86
2024/01/15 13:35:09;;;;;;;12.48;7.18;;;;;;;4.51;51.70;93796.91;6164294;23;20019;-86
2024/01/15 13:37:34;;;;;;;81.97;44.08;;;;;;;4.54;52.98;93793.97;6165240;23;20012;-86
2024/01/15 14:11:22;;;;;;;10.73;5.35;;;;;;;4.53;51.16;93807.81;6208173;23;20024;-85
2024/01/15 14:13:48;;;;;;;9.80;5.47;;;;;;;4.69;50.53;93814.59;6163397;23;20078;-86
2024/01/15 14:16:13;;;;;;;9.13;5.85;;;;;;;4.52;51.01;93821.69;6187021;23;20013;-86
2024/01/15 14:18:39;;;;;;;9.25;5.78;;;;;;;4.53;50.77;93818.13;6187563;23;20046;-86
2024/01/15 14:21:04;;;;;;;9.32;5.85;;;;;;;4.86;50.85;93826.34;6186983;23;20036;-86
2024/01/15 14:28:30;;;;;;;8.65;5.38;;;;;;;4.85;50.50;93829.88;6183029;23;20068;-84
2024/01/15 14:31:00;;;;;;;9.10;5.32;;;;;;;4.79;49.58;93833.16;6155329;23;20009;-85
2024/01/15 14:33:26;;;;;;;8.50;5.28;;;;;;;4.58;50.69;93823.56;6131889;23;20033;-85
2024/01/15 14:35:52;;;;;;;7.35;4.90;;;;;;;4.79;49.05;93816.94;6133036;23;20005;-85
2024/01/15 14:38:18;;;;;;;9.15;5.43;;;;;;;4.79;49.25;93832.38;6132746;23;20013;-85
2024/01/15 14:40:44;;;;;;;9.93;5.60;;;;;;;4.77;50.36;93839.50;6157965;23;20005;-85
2024/01/15 14:43:10;;;;;;;12.10;6.70;;;;;;;4.88;49.75;93826.19;6133093;23;20073;-86
2024/01/15 14:45:35;;;;;;;8.80;5.22;;;;;;;4.98;48.96;93831.84;6157512;23;20009;-85
2024/01/15 14:48:01;;;;;;;8.75;5.22;;;;;;;5.00;48.98;93826.53;6132724;23;20028;-86
2024/01/15 14:53:01;;;;;;;8.35;4.80;;;;;;;4.85;49.37;93824.72;6208175;23;20016;-86
2024/01/15 14:55:27;;;;;;;8.32;5.30;;;;;;;4.91;51.02;93846.41;6185813;23;20022;-85
2024/01/15 14:57:52;;;;;;;8.75;5.00;;;;;;;4.81;50.62;93853.63;6162487;23;20018;-85
2024/01/15 15:00:18;;;;;;;7.95;5.28;;;;;;;4.84;50.64;93855.84;6162126;23;19997;-86
2024/01/15 15:02:44;;;;;;;8.40;5.72;;;;;;;4.73;51.18;93871.72;6186934;23;20016;-86
2024/01/15 15:12:55;;;;;;;12.45;6.28;;;;;;;4.58;52.58;93872.47;6212176;23;20078;-86
2024/01/15 15:15:20;;;;;;;9.52;6.15;;;;;;;4.80;52.27;93885.50;6163097;23;20012;-85
2024/01/15 15:17:46;;;;;;;10.52;6.53;;;;;;;4.79;52.14;93882.13;6162631;23;20005;-85
2024/01/15 15:20:12;;;;;;;13.15;6.80;;;;;;;4.76;51.99;93886.81;6187708;23;20009;-85
2024/01/15 15:22:37;;;;;;;9.60;5.57;;;;;;;4.97;50.83;93878.41;6187937;23;20000;-85
2024/01/15 15:32:48;;;;;;;10.65;5.95;;;;;;;4.82;51.13;93891.28;6212108;23;20025;-85
2024/01/15 15:35:13;;;;;;;10.55;6.40;;;;;;;4.86;51.10;93895.91;6187537;23;20015;-85
2024/01/15 15:37:39;;;;;;;11.77;6.13;;;;;;;4.88;50.74;93911.19;6187418;23;20011;-85
2024/01/15 15:40:08;;;;;;;11.02;6.05;;;;;;;4.80;50.14;93891.47;6187414;23;20004;-86
2024/01/15 15:44:59;;;;;;;8.90;5.50;;;;;;;4.65;50.46;93894.00;6180957;23;20017;-85
2024/01/15 15:47:28;;;;;;;10.32;5.93;;;;;;;4.94;49.98;93910.50;6133047;23;20025;-85
2024/01/15 15:49:54;;;;;;;9.95;5.43;;;;;;;4.90;50.19;93909.25;6132769;23;20056;-87
2024/01/15 15:52:19;;;;;;;11.07;6.47;;;;;;;4.80;50.99;93911.28;6133279;23;20084;-87
2024/01/15 15:57:10;;;;;;;12.60;7.03;;;;;;;4.77;51.40;93921.91;6179418;23;20017;-86
2024/01/15 15:59:36;;;;;;;8.93;5.93;;;;;;;4.26;52.01;93910.34;6162327;23;20059;-86
2024/01/15 16:02:01;;;;;;;14.70;8.32;;;;;;;4.55;51.33;93918.38;6187454;23;20078;-86
2024/01/15 16:04:27;;;;;;;19.95;9.68;;;;;;;4.70;50.92;93924.38;6187202;23;20063;-87
2024/01/15 16:06:53;;;;;;;24.45;10.70;;;;;;;4.33;51.50;93920.00;6161812;23;20023;-86
2024/01/15 16:19:29;;;;;;;15.32;8.40;;;;;;;4.74;50.72;93933.38;6211548;22;20020;-85
2024/01/15 16:21:55;;;;;;;12.80;7.95;;;;;;;4.73;50.99;93930.97;6186762;23;20022;-85
2024/01/15 16:24:24;;;;;;;12.85;6.18;;;;;;;4.37;51.52;93939.25;6163072;23;20008;-86
2024/01/15 16:34:25;;;;;;;11.00;6.10;;;;;;;4.74;52.30;93943.69;6188964;23;20013;-85
2024/01/15 16:36:54;;;;;;;9.68;6.20;;;;;;;4.85;51.31;93945.03;6187122;23;20016;-86
2024/01/15 16:39:19;;;;;;;12.95;6.80;;;;;;;4.74;51.93;93946.25;6187269;23;20000;-86
2024/01/15 16:41:48;;;;;;;10.63;6.32;;;;;;;4.81;52.78;93960.03;6162407;23;20024;-86
2024/01/15 16:44:14;;;;;;;10.32;6.03;;;;;;;4.85;52.39;93958.69;6137932;23;20082;-86
2024/01/15 16:46:39;;;;;;;10.82;6.38;;;;;;;4.81;52.09;93956.66;6146791;23;20013;-87
2024/01/15 16:49:09;;;;;;;8.48;5.55;;;;;;;4.83;51.80;93955.50;6132082;23;20013;-85
2024/01/15 16:51:35;;;;;;;10.88;6.93;;;;;;;5.00;51.88;93976.78;6109783;23;20013;-85
2024/01/15 16:54:00;;;;;;;13.43;7.68;;;;;;;4.85;52.71;93988.81;6132435;23;20012;-85
2024/01/15 17:01:36;;;;;;;15.40;8.50;;;;;;;4.68;53.31;94001.84;6184898;23;20013;-85
2024/01/15 17:04:03;;;;;;;40.60;20.77;;;;;;;4.46;53.11;93989.72;6194641;23;20023;-85
2024/01/15 17:06:29;;;;;;;38.38;20.95;;;;;;;4.46;53.02;93987.16;6194088;23;20016;-85
2024/01/15 17:08:54;;;;;;;54.60;30.98;;;;;;;4.81;53.15;93992.72;6193817;23;20008;-85
2024/01/15 17:11:20;;;;;;;22.73;13.43;;;;;;;4.61;53.62;93995.75;6218963;23;20074;-85
2024/01/15 17:13:46;;;;;;;24.65;14.60;;;;;;;4.69;53.47;94000.84;6218821;23;20008;-85
2024/01/15 17:16:11;;;;;;;19.80;11.00;;;;;;;4.46;54.35;94007.75;6219532;23;20064;-85
2024/01/15 17:23:37;;;;;;;19.42;10.93;;;;;;;4.42;54.71;94003.94;6212869;23;20020;-86
2024/01/15 17:28:28;;;;;;;21.58;10.77;;;;;;;4.45;55.12;94016.44;6213782;23;20087;-85
2024/01/15 17:30:54;;;;;;;23.02;13.38;;;;;;;4.56;54.93;94028.94;6164086;23;20020;-85
2024/01/15 17:33:21;;;;;;;27.50;15.45;;;;;;;4.59;54.63;94023.44;6188513;23;20020;-85
2024/01/15 17:35:52;;;;;;;25.98;14.23;;;;;;;4.37;55.26;94034.50;6140325;23;20020;-85
2024/01/15 17:43:21;;;;;;;21.75;10.77;;;;;;;4.60;54.38;94039.69;6212792;23;20028;-85
2024/01/15 17:45:48;;;;;;;19.60;11.18;;;;;;;4.63;54.35;94045.31;6188352;23;20083;-85
2024/01/15 17:53:14;;;;;;;21.80;11.45;;;;;;;4.30;55.67;94050.63;6212824;23;20013;-85
2024/01/15 17:55:43;;;;;;;24.25;13.95;;;;;;;4.51;55.23;94051.81;6163913;23;20016;-85
2024/01/15 17:58:08;;;;;;;35.20;18.75;;;;;;;4.56;55.27;94064.97;6163984;23;20008;-85
2024/01/15 18:00:34;;;;;;;42.33;23.35;;;;;;;4.64;54.30;94051.25;6164012;23;20024;-85
2024/01/15 18:02:59;;;;;;;29.25;15.85;;;;;;;4.40;55.42;94047.03;6188441;23;20016;-84
2024/01/15 18:05:25;;;;;;;30.25;15.65;;;;;;;4.56;54.12;94056.47;6178296;23;20023;-85
2024/01/15 18:07:51;;;;;;;26.10;14.55;;;;;;;4.39;55.08;94063.47;6134475;23;20013;-87
2024/01/15 18:10:16;;;;;;;21.90;12.65;;;;;;;4.40;54.82;94060.72;6133824;23;20075;-85
2024/01/15 18:12:42;;;;;;;23.00;11.65;;;;;;;4.24;53.90;94056.44;6134278;23;20016;-85
2024/01/15 18:35:41;;;;;;;24.52;13.32;;;;;;;4.15;54.63;94102.94;6211066;23;20013;-84
2024/01/15 18:38:07;;;;;;;38.78;27.38;;;;;;;4.24;53.97;94113.06;6185962;23;20044;-85
2024/01/15 18:40:36;;;;;;;44.28;32.28;;;;;;;4.33;53.05;94113.06;6187712;23;20007;-85
2024/01/15 18:43:01;;;;;;;34.55;23.10;;;;;;;4.11;54.06;94117.91;6163650;23;20009;-85
2024/01/15 18:45:27;;;;;;;39.17;27.35;;;;;;;4.48;53.51;94124.25;6163214;23;20124;-84
2024/01/15 18:47:53;;;;;;;36.78;19.80;;;;;;;4.31;53.77;94116.56;6188304;23;20015;-84
2024/01/15 18:50:20;;;;;;;23.05;12.07;;;;;;;4.28;53.54;94114.34;6188272;23;19996;-84
2024/01/15 18:52:48;;;;;;;21.42;12.48;;;;;;;4.36;53.75;94131.53;6162937;23;20040;-85
2024/01/15 18:55:13;;;;;;;30.08;15.18;;;;;;;4.35;53.83;94131.69;6164025;23;20009;-85
2024/01/15 18:57:42;;;;;;;18.95;9.80;;;;;;;4.33;52.42;94128.50;6188468;23;20005;-85
2024/01/15 19:05:08;;;;;;;9.82;4.93;;;;;;;4.40;52.10;94137.13;6183332;23;20025;-85
2024/01/15 19:07:34;;;;;;;9.10;5.10;;;;;;;4.26;52.00;94149.72;6133141;23;20020;-85
2024/01/15 19:09:59;;;;;;;8.15;4.68;;;;;;;4.33;52.61;94156.81;6133353;23;20033;-85
2024/01/15 19:17:37;;;;;;;7.03;4.65;;;;;;;4.01;52.47;94166.19;6211638;22;20083;-85
2024/01/15 19:20:02;;;;;;;8.75;5.20;;;;;;;4.21;51.81;94154.59;6188143;23;20052;-85
2024/01/15 19:22:28;;;;;;;10.05;4.93;;;;;;;4.37;51.52;94169.16;6187896;23;20008;-85
2024/01/15 19:24:53;;;;;;;8.40;4.95;;;;;;;4.17;52.02;94176.47;6162485;23;20090;-85
2024/01/15 19:27:19;;;;;;;9.60;5.45;;;;;;;4.27;52.20;94169.34;6187581;23;20020;-86
2024/01/15 19:43:11;;;;;;;10.13;5.22;;;;;;;4.24;51.42;94190.28;6183201;23;20025;-84
2024/01/15 19:45:37;;;;;;;7.97;5.15;;;;;;;4.26;52.10;94197.84;6157725;23;20021;-85
2024/01/15 19:48:03;;;;;;;8.25;4.88;;;;;;;4.10;52.43;94199.47;6132464;23;20059;-85
2024/01/15 19:50:32;;;;;;;9.95;5.70;;;;;;;4.08;52.05;94206.53;6133247;23;20012;-85
2024/01/15 19:52:57;;;;;;;7.35;4.93;;;;;;;4.17;51.18;94196.22;6157500;23;20016;-85
2024/01/15 21:10:37;;;;;;;9.85;6.03;;;;;;;3.95;50.59;94262.84;6224248;22;1520989;-86
2024/01/15 21:29:06;;;;;;;12.85;6.40;;;;;;;3.92;51.75;94279.41;6216076;22;20091;-85
2024/01/15 21:39:17;;;;;;;12.90;7.03;;;;;;;3.69;51.72;94275.81;6274350;22;20030;-85
2024/01/15 21:41:49;;;;;;;12.00;6.50;;;;;;;3.84;51.30;94276.81;6223608;22;20008;-85
2024/01/15 21:44:14;;;;;;;11.27;6.40;;;;;;;3.79;52.11;94281.66;6248502;22;20003;-85
2024/01/15 21:46:40;;;;;;;12.32;6.80;;;;;;;3.50;53.07;94285.44;6248274;22;20011;-85
2024/01/15 21:49:05;;;;;;;12.55;6.72;;;;;;;4.04;51.07;94287.59;6222532;22;20087;-85
2024/01/15 21:59:17;;;;;;;11.45;6.32;;;;;;;3.72;51.97;94285.81;6243041;22;20035;-85
2024/01/15 22:06:45;;;;;;;12.63;6.97;;;;;;;3.50;52.23;94293.16;6215665;22;20016;-85
2024/01/15 22:09:10;;;;;;;12.25;6.70;;;;;;;3.59;51.69;94288.03;6187807;23;20051;-85
2024/01/15 22:11:36;;;;;;;12.57;6.53;;;;;;;3.55;51.98;94286.75;6138442;23;20016;-85
